createdAt,value
2019-01-20T00:00:15.682Z,3.20
2019-01-20T00:01:19.328Z,3.40
2019-01-20T00:02:22.870Z,2.93
2019-01-20T00:03:26.352Z,3.33
2019-01-20T00:04:29.877Z,3.53
2019-01-20T00:05:33.661Z,4.07
2019-01-20T00:06:37.213Z,2.97
2019-01-20T00:07:40.728Z,2.73
2019-01-20T00:08:44.272Z,2.83
2019-01-20T00:09:49.438Z,2.43
2019-01-20T00:10:52.916Z,2.73
2019-01-20T00:11:56.393Z,2.30
2019-01-20T00:12:59.900Z,2.87
2019-01-20T00:14:03.615Z,3.23
2019-01-20T00:15:16.379Z,2.70
2019-01-20T00:16:20.045Z,2.67
2019-01-20T00:17:23.615Z,3.37
2019-01-20T00:18:27.138Z,2.80
2019-01-20T00:19:30.638Z,2.87
2019-01-20T00:20:34.206Z,2.33
2019-01-20T00:21:37.794Z,3.10
2019-01-20T00:22:41.409Z,3.20
2019-01-20T00:23:45.063Z,2.80
2019-01-20T00:24:48.571Z,2.80
2019-01-20T00:25:52.062Z,2.93
2019-01-20T00:26:55.586Z,2.73
2019-01-20T00:27:59.206Z,2.30
2019-01-20T00:29:02.775Z,2.70
2019-01-20T00:30:09.318Z,2.97
2019-01-20T00:31:12.899Z,3.10
2019-01-20T00:32:16.422Z,2.53
2019-01-20T00:33:20.047Z,2.80
2019-01-20T00:34:23.706Z,2.73
2019-01-20T00:35:27.262Z,3.00
2019-01-20T00:36:30.753Z,2.43
2019-01-20T00:37:34.330Z,2.80
2019-01-20T00:38:37.851Z,2.50
2019-01-20T00:39:41.406Z,2.70
2019-01-20T00:40:44.980Z,2.90
2019-01-20T00:41:48.522Z,3.10
2019-01-20T00:42:52.013Z,2.80
2019-01-20T00:43:55.601Z,2.80
2019-01-20T00:45:02.853Z,2.80
2019-01-20T00:46:04.672Z,2.67
2019-01-20T00:47:08.757Z,2.30
2019-01-20T00:48:12.407Z,2.60
2019-01-20T00:49:15.939Z,2.60
2019-01-20T00:50:19.639Z,2.60
2019-01-20T00:51:23.442Z,2.80
2019-01-20T00:52:27.025Z,2.77
2019-01-20T00:53:30.574Z,2.13
2019-01-20T00:54:34.152Z,2.50
2019-01-20T00:55:37.842Z,2.90
2019-01-20T00:56:41.406Z,3.07
2019-01-20T00:57:45.688Z,2.53
2019-01-20T00:58:49.320Z,2.63
2019-01-20T00:59:52.977Z,2.60
2019-01-20T01:00:56.566Z,2.30
2019-01-20T01:02:00.380Z,2.80
2019-01-20T01:03:04.264Z,2.60
2019-01-20T01:04:07.945Z,2.37
2019-01-20T01:05:11.792Z,2.40
2019-01-20T01:06:15.492Z,2.27
2019-01-20T01:07:19.101Z,2.50
2019-01-20T01:08:22.790Z,2.60
2019-01-20T01:09:26.414Z,2.67
2019-01-20T01:10:30.137Z,2.47
2019-01-20T01:11:33.642Z,2.77
2019-01-20T01:12:37.756Z,2.10
2019-01-20T01:13:41.596Z,2.37
2019-01-20T01:14:45.361Z,2.73
2019-01-20T01:15:49.068Z,2.55
2019-01-20T01:16:52.649Z,2.17
2019-01-20T01:17:56.261Z,2.30
2019-01-20T01:18:59.841Z,2.43
2019-01-20T01:20:04.672Z,2.20
2019-01-20T01:21:08.264Z,2.50
2019-01-20T01:22:11.908Z,2.60
2019-01-20T01:23:15.491Z,2.70
2019-01-20T01:24:19.081Z,1.93
2019-01-20T01:25:22.831Z,2.57
2019-01-20T01:26:26.405Z,2.43
2019-01-20T01:27:29.937Z,2.40
2019-01-20T01:28:33.620Z,2.10
2019-01-20T01:29:37.220Z,2.20
2019-01-20T01:30:40.855Z,2.30
2019-01-20T01:31:44.436Z,2.00
2019-01-20T01:32:48.484Z,2.17
2019-01-20T01:33:52.040Z,2.60
2019-01-20T01:34:55.625Z,1.90
2019-01-20T01:35:59.322Z,2.42
2019-01-20T01:37:02.897Z,2.63
2019-01-20T01:38:06.645Z,2.17
2019-01-20T01:39:10.293Z,2.20
2019-01-20T01:40:18.305Z,2.20
2019-01-20T01:41:21.857Z,2.30
2019-01-20T01:42:25.363Z,2.20
2019-01-20T01:43:28.849Z,2.63
2019-01-20T01:44:32.441Z,2.40
2019-01-20T01:45:36.102Z,2.37
2019-01-20T01:46:39.601Z,1.90
2019-01-20T01:47:43.402Z,1.70
2019-01-20T01:48:46.962Z,2.40
2019-01-20T01:49:50.515Z,2.00
2019-01-20T01:50:54.028Z,2.05
2019-01-20T01:51:57.565Z,2.10
2019-01-20T01:53:01.217Z,2.30
2019-01-20T01:54:05.059Z,2.02
2019-01-20T01:55:11.146Z,2.53
2019-01-20T01:56:14.698Z,2.43
2019-01-20T01:57:18.409Z,2.07
2019-01-20T01:58:22.306Z,2.30
2019-01-20T01:59:25.929Z,1.97
2019-01-20T02:00:29.625Z,2.17
2019-01-20T02:01:33.164Z,1.90
2019-01-20T02:02:36.797Z,2.33
2019-01-20T02:03:40.367Z,2.17
2019-01-20T02:04:44.040Z,2.20
2019-01-20T02:05:47.586Z,1.72
2019-01-20T02:06:51.142Z,2.57
2019-01-20T02:07:54.683Z,2.30
2019-01-20T02:08:58.274Z,2.10
2019-01-20T02:10:01.819Z,2.10
2019-01-20T02:11:05.554Z,1.90
2019-01-20T02:12:09.086Z,2.10
2019-01-20T02:13:12.627Z,2.00
2019-01-20T02:14:16.161Z,2.27
2019-01-20T02:15:21.298Z,2.67
2019-01-20T02:16:24.943Z,2.30
2019-01-20T02:17:28.628Z,2.47
2019-01-20T02:18:32.180Z,2.10
2019-01-20T02:19:35.897Z,2.00
2019-01-20T02:20:39.717Z,2.60
2019-01-20T02:21:43.677Z,2.08
2019-01-20T02:22:47.320Z,2.03
2019-01-20T02:23:50.947Z,2.02
2019-01-20T02:24:54.584Z,1.90
2019-01-20T02:25:58.166Z,1.87
2019-01-20T02:27:01.686Z,2.07
2019-01-20T02:28:05.391Z,2.10
2019-01-20T02:29:08.926Z,1.75
2019-01-20T02:30:20.883Z,2.10
2019-01-20T02:31:24.393Z,2.30
2019-01-20T02:32:28.011Z,2.15
2019-01-20T02:33:31.514Z,2.20
2019-01-20T02:34:35.024Z,2.20
2019-01-20T02:35:38.764Z,1.90
2019-01-20T02:36:42.330Z,1.98
2019-01-20T02:37:45.885Z,1.80
2019-01-20T02:38:49.507Z,2.00
2019-01-20T02:39:53.016Z,1.90
2019-01-20T02:40:56.529Z,2.37
2019-01-20T02:42:00.108Z,1.93
2019-01-20T02:43:03.647Z,2.00
2019-01-20T02:44:07.212Z,1.93
2019-01-20T02:45:13.034Z,2.00
2019-01-20T02:46:16.619Z,2.00
2019-01-20T02:47:20.096Z,2.50
2019-01-20T02:48:23.615Z,2.00
2019-01-20T02:49:27.135Z,2.15
2019-01-20T02:50:30.702Z,1.65
2019-01-20T02:51:34.287Z,2.15
2019-01-20T02:52:37.767Z,1.90
2019-01-20T02:53:41.272Z,2.12
2019-01-20T02:54:44.789Z,1.70
2019-01-20T02:55:48.354Z,2.33
2019-01-20T02:56:51.932Z,1.95
2019-01-20T02:57:55.452Z,1.75
2019-01-20T02:58:59.031Z,1.95
2019-01-20T03:00:03.166Z,2.00
2019-01-20T03:01:06.842Z,2.03
2019-01-20T03:02:10.540Z,1.90
2019-01-20T03:03:14.040Z,2.12
2019-01-20T03:04:17.652Z,1.82
2019-01-20T03:05:21.906Z,1.87
2019-01-20T03:06:25.415Z,2.00
2019-01-20T03:07:28.929Z,2.00
2019-01-20T03:08:32.504Z,2.00
2019-01-20T03:09:36.096Z,2.27
2019-01-20T03:10:39.717Z,2.12
2019-01-20T03:11:43.221Z,1.40
2019-01-20T03:12:46.867Z,1.85
2019-01-20T03:13:50.409Z,2.00
2019-01-20T03:14:53.992Z,2.03
2019-01-20T03:15:57.497Z,1.50
2019-01-20T03:17:00.993Z,2.13
2019-01-20T03:18:04.994Z,1.60
2019-01-20T03:19:08.651Z,2.30
2019-01-20T03:20:17.551Z,1.60
2019-01-20T03:21:21.054Z,1.95
2019-01-20T03:22:24.560Z,1.73
2019-01-20T03:23:27.060Z,2.05
2019-01-20T03:24:30.694Z,1.82
2019-01-20T03:25:34.373Z,1.70
2019-01-20T03:26:38.019Z,2.05
2019-01-20T03:27:41.668Z,1.77
2019-01-20T03:28:45.254Z,2.05
2019-01-20T03:29:48.766Z,1.80
2019-01-20T03:30:52.297Z,1.90
2019-01-20T03:31:55.883Z,1.90
2019-01-20T03:32:59.526Z,1.67
2019-01-20T03:34:03.095Z,2.00
2019-01-20T03:35:08.040Z,2.25
2019-01-20T03:36:11.569Z,1.62
2019-01-20T03:37:15.145Z,1.80
2019-01-20T03:38:18.650Z,1.50
2019-01-20T03:39:22.227Z,1.90
2019-01-20T03:40:25.798Z,2.20
2019-01-20T03:41:28.347Z,1.90
2019-01-20T03:42:32.081Z,1.90
2019-01-20T03:43:35.742Z,2.20
2019-01-20T03:44:39.374Z,2.10
2019-01-20T03:45:42.844Z,2.25
2019-01-20T03:46:46.442Z,1.90
2019-01-20T03:47:50.076Z,2.10
2019-01-20T03:48:53.565Z,2.22
2019-01-20T03:49:57.079Z,1.82
2019-01-20T03:51:00.677Z,2.10
2019-01-20T03:52:04.511Z,2.03
2019-01-20T03:53:08.041Z,2.10
2019-01-20T03:54:11.591Z,2.22
2019-01-20T03:55:17.053Z,2.08
2019-01-20T03:56:20.624Z,2.17
2019-01-20T03:57:24.300Z,1.95
2019-01-20T03:58:27.963Z,1.90
2019-01-20T03:59:31.561Z,1.87
2019-01-20T04:00:35.158Z,1.82
2019-01-20T04:01:38.735Z,2.30
2019-01-20T04:02:42.475Z,1.70
2019-01-20T04:03:46.076Z,2.20
2019-01-20T04:04:49.627Z,1.80
2019-01-20T04:05:53.245Z,1.90
2019-01-20T04:06:56.819Z,2.23
2019-01-20T04:08:00.481Z,1.87
2019-01-20T04:09:06.545Z,1.70
2019-01-20T04:10:13.394Z,1.83
2019-01-20T04:11:16.889Z,1.87
2019-01-20T04:12:21.071Z,1.90
2019-01-20T04:13:24.682Z,2.00
2019-01-20T04:14:28.259Z,1.90
2019-01-20T04:15:31.816Z,1.80
2019-01-20T04:16:35.400Z,1.93
2019-01-20T04:17:38.979Z,1.87
2019-01-20T04:18:42.541Z,1.73
2019-01-20T04:19:46.046Z,2.03
2019-01-20T04:20:49.626Z,1.83
2019-01-20T04:21:53.209Z,1.90
2019-01-20T04:22:56.736Z,2.00
2019-01-20T04:24:00.324Z,2.20
2019-01-20T04:25:05.006Z,1.80
2019-01-20T04:26:08.557Z,1.70
2019-01-20T04:27:12.056Z,1.77
2019-01-20T04:28:15.656Z,1.93
2019-01-20T04:29:19.206Z,1.93
2019-01-20T04:30:22.702Z,1.80
2019-01-20T04:31:26.211Z,1.83
2019-01-20T04:32:29.763Z,1.97
2019-01-20T04:33:33.326Z,2.00
2019-01-20T04:34:36.807Z,2.00
2019-01-20T04:35:40.305Z,2.00
2019-01-20T04:36:43.813Z,1.60
2019-01-20T04:37:47.435Z,1.80
2019-01-20T04:38:50.962Z,1.50
2019-01-20T04:39:54.581Z,1.50
2019-01-20T04:40:58.045Z,2.00
2019-01-20T04:42:01.614Z,2.30
2019-01-20T04:43:05.276Z,1.60
2019-01-20T04:44:08.895Z,1.67
2019-01-20T04:45:14.233Z,1.67
2019-01-20T04:46:17.779Z,1.40
2019-01-20T04:47:21.360Z,1.43
2019-01-20T04:48:24.865Z,1.83
2019-01-20T04:49:28.374Z,1.67
2019-01-20T04:50:31.949Z,1.80
2019-01-20T04:51:35.568Z,1.80
2019-01-20T04:52:39.112Z,2.13
2019-01-20T04:53:42.777Z,1.80
2019-01-20T04:54:46.304Z,1.53
2019-01-20T04:55:49.808Z,1.73
2019-01-20T04:56:53.383Z,1.83
2019-01-20T04:57:56.922Z,1.70
2019-01-20T04:59:00.451Z,1.63
2019-01-20T05:00:06.318Z,1.50
2019-01-20T05:01:09.908Z,2.10
2019-01-20T05:02:13.480Z,1.53
2019-01-20T05:03:17.023Z,1.80
2019-01-20T05:04:20.604Z,1.53
2019-01-20T05:05:24.699Z,1.60
2019-01-20T05:06:28.313Z,1.80
2019-01-20T05:07:32.077Z,1.70
2019-01-20T05:08:35.700Z,2.00
2019-01-20T05:09:39.384Z,1.63
2019-01-20T05:10:43.228Z,1.87
2019-01-20T05:11:46.778Z,1.40
2019-01-20T05:12:50.397Z,1.57
2019-01-20T05:13:53.924Z,1.77
2019-01-20T05:14:57.578Z,1.73
2019-01-20T05:16:01.302Z,1.67
2019-01-20T05:17:05.023Z,1.93
2019-01-20T05:18:08.611Z,1.67
2019-01-20T05:19:12.190Z,2.17
2019-01-20T05:20:17.417Z,1.97
2019-01-20T05:21:21.007Z,1.50
2019-01-20T05:22:24.579Z,1.67
2019-01-20T05:23:28.098Z,2.00
2019-01-20T05:24:31.705Z,1.50
2019-01-20T05:25:35.282Z,1.73
2019-01-20T05:26:39.157Z,1.63
2019-01-20T05:27:42.853Z,1.77
2019-01-20T05:28:46.445Z,1.43
2019-01-20T05:29:50.230Z,1.63
2019-01-20T05:30:53.841Z,1.50
2019-01-20T05:31:57.449Z,1.47
2019-01-20T05:33:01.038Z,1.50
2019-01-20T05:34:04.658Z,1.70
2019-01-20T05:35:09.795Z,1.53
2019-01-20T05:36:13.501Z,1.60
2019-01-20T05:37:17.003Z,1.63
2019-01-20T05:38:20.575Z,1.50
2019-01-20T05:39:24.132Z,1.50
2019-01-20T05:40:27.614Z,2.07
2019-01-20T05:41:31.125Z,1.50
2019-01-20T05:42:34.685Z,1.60
2019-01-20T05:43:38.207Z,1.90
2019-01-20T05:44:41.721Z,1.80
2019-01-20T05:45:45.210Z,1.80
2019-01-20T05:46:48.740Z,1.40
2019-01-20T05:47:52.381Z,1.50
2019-01-20T05:48:55.883Z,1.47
2019-01-20T05:49:59.373Z,1.37
2019-01-20T05:51:02.857Z,1.60
2019-01-20T05:52:06.463Z,2.00
2019-01-20T05:53:09.942Z,1.57
2019-01-20T05:54:13.495Z,1.60
2019-01-20T05:55:17.059Z,1.40
2019-01-20T05:56:20.631Z,1.80
2019-01-20T05:57:24.137Z,2.27
2019-01-20T05:58:27.639Z,1.50
2019-01-20T05:59:31.128Z,1.73
2019-01-20T06:00:35.243Z,1.60
2019-01-20T06:01:38.727Z,1.50
2019-01-20T06:02:42.382Z,1.67
2019-01-20T06:03:45.942Z,1.77
2019-01-20T06:04:49.433Z,1.83
2019-01-20T06:05:52.988Z,1.70
2019-01-20T06:06:56.488Z,1.57
2019-01-20T06:08:00.063Z,1.90
2019-01-20T06:09:05.137Z,1.87
2019-01-20T06:10:11.473Z,1.63
2019-01-20T06:11:14.956Z,1.77
2019-01-20T06:12:18.557Z,2.20
2019-01-20T06:13:22.148Z,1.90
2019-01-20T06:14:25.636Z,1.83
2019-01-20T06:15:29.197Z,1.27
2019-01-20T06:16:32.808Z,2.13
2019-01-20T06:17:36.311Z,1.80
2019-01-20T06:18:39.822Z,2.20
2019-01-20T06:19:43.310Z,1.97
2019-01-20T06:20:46.809Z,2.00
2019-01-20T06:21:50.302Z,1.73
2019-01-20T06:22:53.809Z,2.17
2019-01-20T06:23:57.359Z,1.60
2019-01-20T06:25:00.844Z,1.50
2019-01-20T06:26:04.585Z,2.00
2019-01-20T06:27:08.085Z,1.70
2019-01-20T06:28:11.679Z,1.83
2019-01-20T06:29:15.189Z,2.07
2019-01-20T06:30:24.594Z,1.93
2019-01-20T06:31:28.087Z,1.90
2019-01-20T06:32:31.589Z,1.73
2019-01-20T06:33:35.171Z,2.10
2019-01-20T06:34:38.653Z,2.00
2019-01-20T06:35:42.144Z,1.53
2019-01-20T06:36:45.646Z,1.90
2019-01-20T06:37:49.134Z,1.63
2019-01-20T06:38:52.648Z,2.10
2019-01-20T06:39:56.391Z,2.00
2019-01-20T06:40:59.957Z,2.03
2019-01-20T06:42:03.530Z,2.20
2019-01-20T06:43:07.091Z,1.70
2019-01-20T06:44:10.678Z,1.73
2019-01-20T06:45:15.198Z,1.43
2019-01-20T06:46:18.702Z,2.17
2019-01-20T06:47:22.267Z,1.70
2019-01-20T06:48:25.759Z,1.67
2019-01-20T06:49:29.354Z,1.70
2019-01-20T06:50:32.933Z,1.40
2019-01-20T06:51:36.447Z,2.37
2019-01-20T06:52:40.008Z,1.60
2019-01-20T06:53:43.509Z,1.70
2019-01-20T06:54:47.032Z,1.57
2019-01-20T06:55:50.606Z,1.80
2019-01-20T06:56:54.336Z,1.27
2019-01-20T06:57:58.006Z,1.43
2019-01-20T06:59:01.775Z,1.50
2019-01-20T07:00:08.596Z,1.83
2019-01-20T07:01:12.154Z,1.70
2019-01-20T07:02:15.635Z,1.80
2019-01-20T07:03:20.411Z,1.60
2019-01-20T07:04:24.079Z,1.77
2019-01-20T07:05:27.731Z,1.83
2019-01-20T07:06:31.325Z,2.07
2019-01-20T07:07:34.890Z,1.90
2019-01-20T07:08:38.802Z,2.10
2019-01-20T07:09:42.294Z,1.33
2019-01-20T07:10:45.774Z,1.90
2019-01-20T07:11:49.413Z,1.67
2019-01-20T07:12:53.086Z,2.00
2019-01-20T07:13:56.731Z,1.80
2019-01-20T07:15:01.926Z,1.73
2019-01-20T07:16:05.807Z,1.83
2019-01-20T07:17:09.457Z,1.50
2019-01-20T07:18:13.137Z,1.63
2019-01-20T07:19:16.816Z,1.47
2019-01-20T07:20:20.449Z,1.80
2019-01-20T07:21:24.205Z,1.57
2019-01-20T07:22:27.759Z,1.93
2019-01-20T07:23:31.330Z,1.50
2019-01-20T07:24:34.844Z,1.80
2019-01-20T07:25:38.347Z,1.90
2019-01-20T07:26:41.956Z,1.93
2019-01-20T07:27:45.432Z,1.83
2019-01-20T07:28:49.025Z,1.70
2019-01-20T07:29:52.514Z,2.17
2019-01-20T07:30:56.069Z,1.70
2019-01-20T07:31:59.607Z,2.00
2019-01-20T07:33:04.973Z,1.70
2019-01-20T07:34:08.480Z,1.60
2019-01-20T07:35:12.978Z,1.87
2019-01-20T07:36:16.453Z,1.83
2019-01-20T07:37:19.992Z,1.70
2019-01-20T07:38:23.500Z,1.60
2019-01-20T07:39:26.978Z,1.50
2019-01-20T07:40:30.842Z,1.90
2019-01-20T07:41:34.506Z,1.60
2019-01-20T07:42:38.214Z,1.93
2019-01-20T07:43:42.066Z,1.70
2019-01-20T07:44:45.853Z,1.50
2019-01-20T07:45:49.360Z,1.60
2019-01-20T07:46:52.871Z,1.67
2019-01-20T07:47:56.421Z,1.87
2019-01-20T07:48:59.967Z,1.60
2019-01-20T07:50:05.229Z,2.10
2019-01-20T07:51:08.773Z,1.60
2019-01-20T07:52:12.443Z,1.60
2019-01-20T07:53:15.992Z,1.50
2019-01-20T07:54:19.507Z,1.90
2019-01-20T07:55:23.255Z,1.50
2019-01-20T07:56:26.743Z,1.50
2019-01-20T07:57:30.283Z,2.00
2019-01-20T07:58:33.799Z,1.50
2019-01-20T07:59:37.410Z,1.50
2019-01-20T08:00:40.899Z,1.60
2019-01-20T08:01:44.476Z,1.53
2019-01-20T08:02:48.072Z,1.83
2019-01-20T08:03:51.584Z,2.03
2019-01-20T08:04:55.115Z,1.80
2019-01-20T08:05:58.702Z,1.70
2019-01-20T08:07:02.211Z,1.60
2019-01-20T08:08:06.022Z,1.50
2019-01-20T08:09:09.797Z,1.93
2019-01-20T08:10:21.304Z,1.60
2019-01-20T08:11:24.827Z,1.60
2019-01-20T08:12:28.402Z,2.47
2019-01-20T08:13:32.006Z,1.60
2019-01-20T08:14:35.611Z,2.17
2019-01-20T08:15:39.110Z,1.70
2019-01-20T08:16:42.750Z,1.50
2019-01-20T08:17:46.451Z,1.77
2019-01-20T08:18:50.017Z,1.97
2019-01-20T08:19:53.506Z,1.70
2019-01-20T08:20:57.077Z,1.60
2019-01-20T08:22:00.684Z,1.80
2019-01-20T08:23:04.648Z,2.10
2019-01-20T08:24:08.183Z,1.63
2019-01-20T08:25:13.785Z,1.90
2019-01-20T08:26:17.388Z,1.63
2019-01-20T08:27:21.079Z,1.90
2019-01-20T08:28:24.716Z,1.67
2019-01-20T08:29:28.466Z,1.57
2019-01-20T08:30:32.140Z,2.10
2019-01-20T08:31:35.765Z,1.40
2019-01-20T08:32:39.328Z,1.87
2019-01-20T08:33:42.823Z,1.73
2019-01-20T08:34:46.314Z,1.50
2019-01-20T08:35:50.050Z,1.73
2019-01-20T08:36:53.562Z,1.67
2019-01-20T08:37:57.131Z,2.17
2019-01-20T08:39:00.641Z,1.60
2019-01-20T08:40:06.938Z,1.87
2019-01-20T08:41:10.530Z,2.00
2019-01-20T08:42:14.110Z,1.90
2019-01-20T08:43:17.637Z,2.00
2019-01-20T08:44:23.088Z,2.07
2019-01-20T08:45:47.524Z,1.87
2019-01-20T08:46:52.763Z,1.90
2019-01-20T08:47:59.111Z,1.83
2019-01-20T08:49:02.738Z,1.90
2019-01-20T08:50:09.165Z,1.50
2019-01-20T08:51:13.210Z,1.67
2019-01-20T08:52:16.787Z,1.50
2019-01-20T08:53:20.372Z,1.60
2019-01-20T08:54:23.853Z,1.93
2019-01-20T08:55:27.398Z,1.60
2019-01-20T08:56:30.934Z,1.90
2019-01-20T08:57:34.671Z,1.70
2019-01-20T08:58:38.202Z,2.10
2019-01-20T08:59:41.765Z,2.00
2019-01-20T09:00:45.236Z,1.70
2019-01-20T09:01:48.737Z,1.80
2019-01-20T09:02:52.243Z,1.80
2019-01-20T09:03:55.877Z,2.33
2019-01-20T09:04:59.394Z,2.10
2019-01-20T09:06:02.873Z,2.00
2019-01-20T09:07:06.518Z,2.60
2019-01-20T09:08:10.225Z,2.40
2019-01-20T09:09:13.699Z,2.10
2019-01-20T09:10:23.019Z,2.30
2019-01-20T09:11:26.574Z,2.00
2019-01-20T09:12:30.849Z,2.57
2019-01-20T09:13:39.627Z,2.63
2019-01-20T09:14:39.865Z,2.63
2019-01-20T09:15:43.503Z,2.90
2019-01-20T09:16:47.015Z,3.20
2019-01-20T09:17:50.535Z,2.90
2019-01-20T09:18:54.075Z,2.80
2019-01-20T09:19:57.555Z,3.20
2019-01-20T09:21:01.118Z,2.67
2019-01-20T09:22:04.958Z,3.13
2019-01-20T09:23:08.538Z,3.10
2019-01-20T09:24:12.038Z,3.30
2019-01-20T09:25:15.777Z,3.50
2019-01-20T09:26:19.265Z,3.47
2019-01-20T09:27:22.762Z,3.17
2019-01-20T09:28:26.295Z,3.00
2019-01-20T09:29:29.777Z,3.90
2019-01-20T09:30:33.431Z,3.40
2019-01-20T09:31:37.003Z,3.53
2019-01-20T09:32:40.511Z,4.00
2019-01-20T09:33:44.031Z,4.17
2019-01-20T09:34:47.515Z,4.20
2019-01-20T09:35:51.090Z,4.50
2019-01-20T09:36:54.671Z,4.90
2019-01-20T09:37:58.260Z,4.60
2019-01-20T09:39:01.845Z,4.10
2019-01-20T09:40:07.892Z,4.30
2019-01-20T09:41:11.397Z,5.07
2019-01-20T09:42:14.912Z,4.03
2019-01-20T09:43:18.423Z,4.50
2019-01-20T09:44:22.073Z,5.17
2019-01-20T09:45:31.359Z,4.90
2019-01-20T09:46:35.065Z,5.17
2019-01-20T09:47:38.717Z,4.70
2019-01-20T09:48:42.427Z,4.83
2019-01-20T09:49:45.918Z,5.10
2019-01-20T09:50:51.493Z,4.90
2019-01-20T09:51:54.817Z,5.40
2019-01-20T09:52:58.436Z,5.27
2019-01-20T09:54:01.955Z,5.77
2019-01-20T09:55:08.516Z,4.80
2019-01-20T09:56:12.076Z,5.40
2019-01-20T09:57:15.714Z,5.30
2019-01-20T09:58:19.407Z,5.30
2019-01-20T09:59:23.076Z,6.00
2019-01-20T10:00:29.338Z,4.70
2019-01-20T10:01:32.901Z,5.30
2019-01-20T10:02:36.404Z,5.27
2019-01-20T10:03:39.903Z,5.95
2019-01-20T10:04:43.499Z,5.80
2019-01-20T10:05:47.009Z,5.60
2019-01-20T10:06:50.574Z,5.33
2019-01-20T10:07:54.283Z,5.20
2019-01-20T10:08:57.835Z,5.13
2019-01-20T10:10:01.353Z,5.90
2019-01-20T10:11:05.182Z,6.00
2019-01-20T10:12:08.800Z,5.13
2019-01-20T10:13:12.308Z,5.70
2019-01-20T10:14:15.893Z,6.37
2019-01-20T10:15:19.539Z,6.23
2019-01-20T10:16:23.096Z,5.67
2019-01-20T10:17:26.726Z,6.20
2019-01-20T10:18:30.378Z,6.20
2019-01-20T10:19:33.873Z,6.23
2019-01-20T10:20:37.467Z,6.37
2019-01-20T10:21:41.059Z,5.20
2019-01-20T10:22:44.570Z,5.35
2019-01-20T10:23:48.063Z,5.57
2019-01-20T10:24:51.603Z,5.53
2019-01-20T10:25:55.210Z,4.97
2019-01-20T10:26:58.722Z,4.93
2019-01-20T10:28:02.342Z,5.50
2019-01-20T10:29:05.914Z,5.07
2019-01-20T10:30:21.131Z,4.20
2019-01-20T10:31:24.655Z,4.90
2019-01-20T10:32:28.228Z,4.97
2019-01-20T10:33:31.735Z,4.63
2019-01-20T10:34:35.442Z,4.47
2019-01-20T10:35:43.383Z,4.63
2019-01-20T10:36:46.991Z,4.53
2019-01-20T10:37:50.807Z,5.03
2019-01-20T10:38:54.301Z,4.10
2019-01-20T10:39:57.791Z,4.40
2019-01-20T10:41:01.490Z,4.40
2019-01-20T10:42:05.545Z,4.23
2019-01-20T10:43:09.284Z,4.93
2019-01-20T10:44:12.816Z,4.60
2019-01-20T10:45:16.372Z,4.00
2019-01-20T10:46:19.868Z,4.23
2019-01-20T10:47:23.414Z,4.57
2019-01-20T10:48:26.970Z,4.43
2019-01-20T10:49:30.531Z,4.33
2019-01-20T10:50:34.094Z,3.73
2019-01-20T10:51:37.653Z,4.63
2019-01-20T10:52:41.244Z,4.10
2019-01-20T10:53:44.813Z,4.07
2019-01-20T10:54:48.312Z,4.17
2019-01-20T10:55:51.869Z,3.83
2019-01-20T10:56:55.436Z,4.17
2019-01-20T10:57:59.098Z,3.87
2019-01-20T10:59:02.745Z,4.60
2019-01-20T11:00:09.360Z,4.27
2019-01-20T11:01:12.935Z,3.33
2019-01-20T11:02:16.476Z,3.97
2019-01-20T11:03:20.308Z,4.47
2019-01-20T11:04:24.428Z,4.70
2019-01-20T11:05:30.518Z,4.20
2019-01-20T11:06:33.537Z,3.57
2019-01-20T11:07:37.698Z,3.80
2019-01-20T11:08:43.764Z,4.10
2019-01-20T11:09:46.993Z,4.03
2019-01-20T11:10:52.210Z,3.87
2019-01-20T11:11:55.825Z,3.83
2019-01-20T11:12:59.503Z,3.43
2019-01-20T11:14:09.399Z,4.00
2019-01-20T11:15:13.792Z,3.67
2019-01-20T11:16:17.380Z,4.10
2019-01-20T11:17:20.961Z,4.40
2019-01-20T11:18:24.779Z,4.13
2019-01-20T11:19:28.363Z,3.60
2019-01-20T11:20:31.985Z,3.57
2019-01-20T11:21:35.544Z,3.90
2019-01-20T11:22:39.408Z,3.90
2019-01-20T11:23:43.086Z,3.83
2019-01-20T11:24:46.611Z,3.60
2019-01-20T11:25:50.099Z,3.27
2019-01-20T11:26:53.682Z,3.63
2019-01-20T11:27:57.345Z,3.40
2019-01-20T11:29:00.983Z,3.30
2019-01-20T11:30:07.380Z,3.60
2019-01-20T11:31:10.935Z,3.57
2019-01-20T11:32:14.561Z,3.50
2019-01-20T11:33:19.543Z,3.73
2019-01-20T11:34:23.021Z,3.73
2019-01-20T11:35:26.550Z,4.00
2019-01-20T11:36:30.329Z,4.63
2019-01-20T11:37:38.626Z,3.43
2019-01-20T11:38:42.234Z,3.23
2019-01-20T11:39:45.796Z,3.87
2019-01-20T11:40:50.629Z,3.40
2019-01-20T11:41:54.101Z,4.00
2019-01-20T11:42:57.840Z,3.63
2019-01-20T11:44:01.618Z,3.80
2019-01-20T11:45:11.221Z,4.03
2019-01-20T11:46:14.819Z,3.37
2019-01-20T11:47:18.335Z,3.37
2019-01-20T11:48:21.972Z,3.67
2019-01-20T11:49:25.566Z,3.23
2019-01-20T11:50:30.010Z,3.60
2019-01-20T11:51:33.711Z,3.90
2019-01-20T11:52:37.343Z,3.63
2019-01-20T11:53:40.961Z,3.53
2019-01-20T11:54:44.462Z,3.37
2019-01-20T11:55:48.045Z,3.77
2019-01-20T11:56:51.557Z,3.80
2019-01-20T11:57:55.306Z,3.57
2019-01-20T11:58:58.794Z,3.83
2019-01-20T12:00:02.349Z,3.60
2019-01-20T12:01:05.932Z,3.93
2019-01-20T12:02:09.590Z,3.17
2019-01-20T12:03:13.130Z,3.70
2019-01-20T12:04:16.655Z,3.53
2019-01-20T12:05:20.951Z,3.57
2019-01-20T12:06:24.611Z,3.57
2019-01-20T12:07:28.139Z,3.77
2019-01-20T12:08:31.619Z,3.20
2019-01-20T12:09:35.181Z,4.20
2019-01-20T12:10:38.815Z,3.50
2019-01-20T12:11:42.318Z,3.30
2019-01-20T12:12:47.657Z,3.53
2019-01-20T12:13:51.233Z,3.30
2019-01-20T12:14:54.805Z,3.70
2019-01-20T12:15:58.370Z,3.13
2019-01-20T12:17:01.951Z,3.07
2019-01-20T12:18:06.010Z,3.50
2019-01-20T12:19:09.495Z,2.97
2019-01-20T12:20:16.995Z,3.57
2019-01-20T12:21:20.494Z,3.40
2019-01-20T12:22:24.009Z,3.20
2019-01-20T12:23:27.539Z,3.50
2019-01-20T12:24:31.063Z,3.60
2019-01-20T12:25:34.647Z,3.30
2019-01-20T12:26:38.304Z,3.20
2019-01-20T12:27:41.878Z,3.30
2019-01-20T12:28:45.559Z,3.07
2019-01-20T12:29:51.940Z,3.23
2019-01-20T12:30:55.029Z,4.00
2019-01-20T12:31:58.615Z,3.10
2019-01-20T12:33:03.867Z,3.40
2019-01-20T12:34:07.480Z,3.37
2019-01-20T12:35:11.119Z,3.50
2019-01-20T12:36:14.723Z,3.77
2019-01-20T12:37:18.290Z,3.67
2019-01-20T12:38:21.890Z,3.60
2019-01-20T12:39:25.397Z,3.43
2019-01-20T12:40:34.294Z,3.23
2019-01-20T12:41:37.884Z,3.53
2019-01-20T12:42:41.510Z,3.50
2019-01-20T12:43:45.006Z,3.30
2019-01-20T12:44:48.540Z,3.60
2019-01-20T12:45:52.078Z,3.03
2019-01-20T12:46:55.653Z,3.53
2019-01-20T12:47:59.292Z,3.27
2019-01-20T12:49:02.957Z,3.20
2019-01-20T12:50:09.776Z,3.13
2019-01-20T12:51:13.640Z,3.73
2019-01-20T12:52:17.192Z,3.37
2019-01-20T12:53:20.773Z,3.40
2019-01-20T12:54:24.410Z,3.47
2019-01-20T12:55:28.132Z,3.17
2019-01-20T12:56:31.677Z,3.27
2019-01-20T12:57:35.435Z,3.27
2019-01-20T12:58:39.016Z,2.80
2019-01-20T12:59:42.502Z,3.63
2019-01-20T13:00:46.082Z,3.17
2019-01-20T13:01:49.644Z,3.50
2019-01-20T13:02:53.217Z,3.60
2019-01-20T13:03:56.691Z,3.23
2019-01-20T13:05:00.291Z,3.20
2019-01-20T13:06:04.268Z,3.00
2019-01-20T13:07:07.857Z,3.10
2019-01-20T13:08:11.419Z,3.37
2019-01-20T13:09:14.912Z,3.27
2019-01-20T13:10:19.554Z,3.77
2019-01-20T13:11:23.300Z,3.20
2019-01-20T13:12:26.941Z,3.60
2019-01-20T13:13:30.469Z,2.77
2019-01-20T13:14:38.969Z,3.30
2019-01-20T13:15:39.453Z,3.10
2019-01-20T13:16:43.133Z,2.80
2019-01-20T13:17:46.817Z,3.20
2019-01-20T13:18:50.303Z,3.40
2019-01-20T13:19:53.798Z,2.60
2019-01-20T13:20:57.496Z,3.40
2019-01-20T13:22:01.333Z,3.27
2019-01-20T13:23:05.243Z,3.30
2019-01-20T13:24:08.768Z,2.80
2019-01-20T13:25:15.307Z,2.93
2019-01-20T13:26:18.844Z,3.17
2019-01-20T13:27:22.452Z,3.80
2019-01-20T13:28:25.956Z,3.00
2019-01-20T13:29:29.673Z,3.07
2019-01-20T13:30:33.236Z,2.50
2019-01-20T13:31:36.816Z,3.30
2019-01-20T13:32:40.401Z,2.93
2019-01-20T13:33:43.985Z,3.17
2019-01-20T13:34:47.492Z,3.00
2019-01-20T13:35:51.073Z,4.03
2019-01-20T13:36:54.846Z,3.10
2019-01-20T13:38:03.889Z,2.80
2019-01-20T13:39:10.135Z,3.10
2019-01-20T13:40:16.689Z,2.93
2019-01-20T13:41:20.253Z,3.00
2019-01-20T13:42:23.870Z,3.37
2019-01-20T13:43:27.472Z,3.53
2019-01-20T13:44:31.056Z,3.00
2019-01-20T13:45:34.683Z,3.00
2019-01-20T13:46:38.176Z,2.80
2019-01-20T13:47:48.476Z,3.00
2019-01-20T13:48:47.157Z,3.20
2019-01-20T13:49:50.715Z,2.97
2019-01-20T13:50:54.281Z,3.57
2019-01-20T13:51:57.830Z,2.90
2019-01-20T13:53:01.458Z,3.17
2019-01-20T13:54:05.214Z,3.33
2019-01-20T13:55:11.523Z,2.90
2019-01-20T13:56:15.165Z,3.30
2019-01-20T13:57:18.662Z,3.03
2019-01-20T13:58:22.168Z,3.17
2019-01-20T13:59:26.051Z,3.33
2019-01-20T14:00:29.837Z,4.40
2019-01-20T14:01:33.452Z,4.00
2019-01-20T14:02:37.030Z,4.20
2019-01-20T14:03:40.819Z,3.83
2019-01-20T14:04:44.761Z,3.50
2019-01-20T14:05:48.654Z,3.60
2019-01-20T14:06:52.173Z,3.87
2019-01-20T14:07:57.025Z,4.13
2019-01-20T14:09:00.625Z,3.93
2019-01-20T14:10:07.559Z,4.50